createdAt,value
2023-02-27T00:01:37.342Z,100.00
2023-02-27T00:05:41.601Z,100.00
2023-02-27T00:09:43.260Z,100.00
2023-02-27T00:13:44.956Z,100.00
2023-02-27T00:17:46.536Z,100.00
2023-02-27T00:21:48.154Z,100.00
2023-02-27T00:25:49.970Z,100.00
2023-02-27T00:29:51.422Z,100.00
2023-02-27T00:33:52.920Z,100.00
2023-02-27T00:37:54.428Z,100.00
2023-02-27T00:41:55.914Z,100.00
2023-02-27T00:45:57.439Z,100.00
2023-02-27T00:49:58.989Z,100.00
2023-02-27T00:54:00.411Z,100.00
2023-02-27T00:58:01.852Z,100.00
2023-02-27T01:02:03.330Z,100.00
2023-02-27T01:06:05.193Z,100.00
2023-02-27T01:10:08.798Z,100.00
2023-02-27T01:14:10.276Z,100.00
2023-02-27T01:18:11.759Z,100.00
2023-02-27T01:22:13.316Z,100.00
2023-02-27T01:26:14.779Z,100.00
2023-02-27T01:30:16.803Z,100.00
2023-02-27T01:34:18.372Z,100.00
2023-02-27T01:38:19.900Z,100.00
2023-02-27T01:42:26.616Z,100.00
2023-02-27T01:46:30.008Z,100.00
2023-02-27T01:50:31.731Z,100.00
2023-02-27T01:54:38.318Z,100.00
2023-02-27T01:58:41.245Z,100.00
2023-02-27T02:02:53.556Z,100.00
2023-02-27T02:07:04.403Z,100.00
2023-02-27T02:11:07.554Z,100.00
2023-02-27T02:15:09.683Z,100.00
2023-02-27T02:19:48.018Z,100.00
2023-02-27T02:24:28.386Z,100.00
2023-02-27T02:28:32.832Z,100.00
2023-02-27T02:32:59.128Z,100.00
2023-02-27T02:37:47.866Z,100.00
2023-02-27T02:42:04.600Z,100.00
2023-02-27T02:46:19.283Z,100.00
2023-02-27T02:50:39.662Z,100.00
2023-02-27T02:54:45.482Z,100.00
2023-02-27T02:59:15.122Z,100.00
2023-02-27T03:03:28.909Z,100.00
2023-02-27T03:07:35.524Z,100.00
2023-02-27T03:11:42.006Z,100.00
2023-02-27T03:15:59.363Z,100.00
2023-02-27T03:20:06.925Z,100.00
2023-02-27T03:24:14.553Z,100.00
2023-02-27T03:28:23.593Z,100.00
2023-02-27T03:32:34.967Z,100.00
2023-02-27T03:36:54.586Z,100.00
2023-02-27T03:41:14.885Z,100.00
2023-02-27T03:45:22.034Z,100.00
2023-02-27T03:49:23.476Z,100.00
2023-02-27T03:53:37.851Z,100.00
2023-02-27T03:57:40.309Z,100.00
2023-02-27T04:01:44.248Z,100.00
2023-02-27T04:05:46.520Z,100.00
2023-02-27T04:09:53.602Z,100.00
2023-02-27T04:14:19.774Z,100.00
2023-02-27T04:18:39.060Z,100.00
2023-02-27T04:22:43.647Z,100.00
2023-02-27T04:26:54.459Z,100.00
2023-02-27T04:31:24.622Z,100.00
2023-02-27T04:35:37.648Z,100.00
2023-02-27T04:40:06.230Z,100.00
2023-02-27T04:44:10.747Z,100.00
2023-02-27T04:48:22.710Z,100.00
2023-02-27T04:52:41.738Z,100.00
2023-02-27T04:56:53.028Z,100.00
2023-02-27T05:01:03.654Z,100.00
2023-02-27T05:05:11.321Z,100.00
2023-02-27T05:09:26.692Z,100.00
2023-02-27T05:13:34.491Z,100.00
2023-02-27T05:18:06.371Z,100.00
2023-02-27T05:22:26.590Z,100.00
2023-02-27T05:26:53.144Z,100.00
2023-02-27T05:31:07.476Z,100.00
2023-02-27T05:35:18.269Z,100.00
2023-02-27T05:39:23.640Z,100.00
2023-02-27T05:43:29.351Z,100.00
2023-02-27T05:47:34.480Z,100.00
2023-02-27T05:51:38.480Z,100.00
2023-02-27T05:55:46.814Z,100.00
2023-02-27T05:59:53.666Z,100.00
2023-02-27T06:03:55.472Z,100.00
2023-02-27T06:07:56.974Z,100.00
2023-02-27T06:12:01.235Z,100.00
2023-02-27T06:16:02.940Z,100.00
2023-02-27T06:20:06.822Z,100.00
2023-02-27T06:24:08.401Z,100.00
2023-02-27T06:28:10.985Z,100.00
2023-02-27T06:32:12.440Z,100.00
2023-02-27T06:36:13.978Z,100.00
2023-02-27T06:40:16.127Z,100.00
2023-02-27T06:44:19.492Z,100.00
2023-02-27T06:48:21.091Z,100.00
2023-02-27T06:52:22.574Z,100.00
2023-02-27T06:56:24.034Z,100.00
2023-02-27T07:00:25.524Z,100.00
2023-02-27T07:04:27.045Z,100.00
2023-02-27T07:08:28.680Z,100.00
2023-02-27T07:12:30.106Z,100.00
2023-02-27T07:16:31.577Z,100.00
2023-02-27T07:20:33.107Z,100.00
2023-02-27T07:24:34.588Z,100.00
2023-02-27T07:28:36.054Z,100.00
2023-02-27T07:32:37.589Z,100.00
2023-02-27T07:36:39.211Z,100.00
2023-02-27T07:40:40.698Z,100.00
2023-02-27T07:44:42.233Z,100.00
2023-02-27T07:48:43.790Z,100.00
2023-02-27T07:52:45.839Z,100.00
2023-02-27T07:56:47.260Z,100.00
2023-02-27T08:00:49.075Z,100.00
2023-02-27T08:04:51.845Z,100.00
2023-02-27T08:08:53.406Z,100.00
2023-02-27T08:12:55.197Z,100.00
2023-02-27T08:16:56.637Z,100.00
2023-02-27T08:20:58.141Z,100.00
2023-02-27T08:25:01.058Z,100.00
2023-02-27T08:29:02.546Z,100.00
2023-02-27T08:33:04.014Z,100.00
2023-02-27T08:37:05.468Z,100.00
2023-02-27T08:41:06.926Z,100.00
2023-02-27T08:45:09.747Z,100.00
2023-02-27T08:49:11.524Z,100.00
2023-02-27T08:53:13.490Z,100.00
2023-02-27T08:57:15.155Z,100.00
2023-02-27T09:01:16.668Z,100.00
2023-02-27T09:05:18.241Z,100.00
2023-02-27T09:09:20.427Z,100.00
2023-02-27T09:13:22.238Z,100.00
2023-02-27T09:17:23.684Z,100.00
2023-02-27T09:21:25.347Z,100.00
2023-02-27T09:25:27.760Z,100.00
2023-02-27T09:29:29.260Z,100.00
2023-02-27T09:33:31.381Z,100.00
2023-02-27T09:37:32.859Z,100.00
2023-02-27T09:41:50.354Z,96.77
2023-02-27T09:45:54.903Z,91.41
2023-02-27T09:50:27.102Z,91.65
2023-02-27T09:54:33.365Z,88.56
2023-02-27T09:58:43.575Z,83.46
2023-02-27T10:03:10.435Z,81.89
2023-02-27T10:07:43.884Z,83.78
2023-02-27T10:12:01.852Z,82.98
2023-02-27T10:16:03.978Z,81.59
2023-02-27T10:20:15.841Z,73.73
2023-02-27T10:24:21.547Z,73.97
2023-02-27T10:28:23.093Z,71.57
2023-02-27T10:32:31.713Z,71.71
2023-02-27T10:36:34.872Z,67.07
2023-02-27T10:40:40.131Z,66.72
2023-02-27T10:44:41.865Z,67.00
2023-02-27T10:48:43.489Z,63.50
2023-02-27T10:52:57.856Z,59.82
2023-02-27T10:57:06.085Z,61.06
2023-02-27T11:01:10.554Z,58.11
2023-02-27T11:05:32.284Z,56.22
2023-02-27T11:09:34.678Z,57.69
2023-02-27T11:13:38.137Z,54.64
2023-02-27T11:17:39.898Z,52.40
2023-02-27T11:21:41.464Z,49.10
2023-02-27T11:25:43.130Z,48.41
2023-02-27T11:30:05.492Z,47.55
2023-02-27T11:34:08.255Z,49.62
2023-02-27T11:38:29.932Z,48.37
2023-02-27T11:42:34.454Z,49.48
2023-02-27T11:46:48.413Z,50.85
2023-02-27T11:51:05.690Z,52.21
2023-02-27T11:55:15.913Z,52.31
2023-02-27T11:59:32.677Z,53.54
2023-02-27T12:03:59.513Z,52.76
2023-02-27T12:08:42.718Z,52.91
2023-02-27T12:13:19.646Z,53.92
2023-02-27T12:17:40.920Z,53.27
2023-02-27T12:21:50.235Z,53.43
2023-02-27T12:26:03.382Z,51.99
2023-02-27T12:30:17.561Z,52.58
2023-02-27T12:34:37.157Z,50.81
2023-02-27T12:38:39.325Z,49.29
2023-02-27T12:43:10.858Z,49.88
2023-02-27T12:47:33.893Z,47.76
2023-02-27T12:51:44.132Z,47.56
2023-02-27T12:55:54.256Z,47.56
2023-02-27T13:00:16.106Z,46.71
2023-02-27T13:04:23.408Z,47.19
2023-02-27T13:08:46.800Z,47.69
2023-02-27T13:12:57.150Z,49.54
2023-02-27T13:17:31.464Z,51.58
2023-02-27T13:21:55.247Z,52.20
2023-02-27T13:25:58.971Z,51.96
2023-02-27T13:30:03.445Z,52.39
2023-02-27T13:34:16.976Z,52.08
2023-02-27T13:38:44.835Z,51.67
2023-02-27T13:42:46.250Z,50.48
2023-02-27T13:46:48.118Z,48.81
2023-02-27T13:50:51.484Z,48.73
2023-02-27T13:54:55.184Z,51.03
2023-02-27T13:59:21.541Z,47.61
2023-02-27T14:03:29.919Z,46.51
2023-02-27T14:07:55.363Z,47.52
2023-02-27T14:12:02.061Z,48.61
2023-02-27T14:16:04.602Z,47.85
2023-02-27T14:20:14.623Z,44.92
2023-02-27T14:24:16.986Z,45.04
2023-02-27T14:28:46.378Z,46.29
2023-02-27T14:32:58.064Z,48.45
2023-02-27T14:37:02.186Z,49.36
2023-02-27T14:41:22.145Z,50.43
2023-02-27T14:45:25.043Z,49.97
2023-02-27T14:49:30.510Z,49.31
2023-02-27T14:53:32.865Z,48.77
2023-02-27T14:57:34.353Z,49.90
2023-02-27T15:01:36.687Z,49.46
2023-02-27T15:05:38.768Z,50.18
2023-02-27T15:09:44.698Z,47.83
2023-02-27T15:13:48.061Z,48.32
2023-02-27T15:17:52.760Z,48.18
2023-02-27T15:21:58.620Z,48.05
2023-02-27T15:26:00.524Z,48.84
2023-02-27T15:30:04.071Z,49.81
2023-02-27T15:34:14.210Z,50.27
2023-02-27T15:38:30.411Z,50.20
2023-02-27T15:42:36.331Z,49.79
2023-02-27T15:46:38.261Z,49.87
2023-02-27T15:50:43.909Z,51.10
2023-02-27T15:54:52.674Z,51.37
2023-02-27T15:59:00.215Z,51.86
2023-02-27T16:03:02.399Z,52.70
2023-02-27T16:07:10.540Z,52.28
2023-02-27T16:11:24.777Z,53.22
2023-02-27T16:15:31.249Z,52.97
2023-02-27T16:19:32.772Z,53.50
2023-02-27T16:23:35.137Z,53.74
2023-02-27T16:27:37.218Z,54.61
2023-02-27T16:31:40.776Z,55.17
2023-02-27T16:35:42.438Z,55.31
2023-02-27T16:39:43.897Z,54.72
2023-02-27T16:43:47.001Z,55.49
2023-02-27T16:47:49.739Z,55.99
2023-02-27T16:51:51.692Z,57.20
2023-02-27T16:55:55.008Z,57.57
2023-02-27T16:59:57.283Z,58.00
2023-02-27T17:03:59.772Z,59.31
2023-02-27T17:08:01.888Z,60.12
2023-02-27T17:12:03.450Z,60.29
2023-02-27T17:16:06.316Z,60.52
2023-02-27T17:20:09.205Z,59.45
2023-02-27T17:24:10.703Z,61.05
2023-02-27T17:28:12.727Z,62.71
2023-02-27T17:32:14.552Z,62.76
2023-02-27T17:36:16.087Z,62.30
2023-02-27T17:40:17.856Z,62.19
2023-02-27T17:44:21.481Z,62.73
2023-02-27T17:48:23.095Z,62.08
2023-02-27T17:52:24.646Z,63.28
2023-02-27T17:56:26.431Z,65.63
2023-02-27T18:00:28.209Z,71.90
2023-02-27T18:04:29.720Z,71.56
2023-02-27T18:08:32.133Z,73.68
2023-02-27T18:12:34.204Z,73.92
2023-02-27T18:16:35.980Z,71.53
2023-02-27T18:20:37.477Z,72.69
2023-02-27T18:24:38.943Z,72.86
2023-02-27T18:28:40.500Z,75.17
2023-02-27T18:32:42.575Z,74.96
2023-02-27T18:36:44.249Z,73.39
2023-02-27T18:40:45.917Z,75.05
2023-02-27T18:44:48.125Z,76.85
2023-02-27T18:48:50.106Z,78.59
2023-02-27T18:52:51.669Z,81.25
2023-02-27T18:56:53.148Z,78.98
2023-02-27T19:00:54.918Z,80.07
2023-02-27T19:04:56.412Z,78.50
2023-02-27T19:08:57.866Z,78.75
2023-02-27T19:12:59.321Z,80.83
2023-02-27T19:17:00.852Z,86.85
2023-02-27T19:21:04.172Z,84.84
2023-02-27T19:25:06.082Z,81.08
2023-02-27T19:29:07.840Z,78.79
2023-02-27T19:33:09.369Z,80.20
2023-02-27T19:37:10.908Z,79.73
2023-02-27T19:41:14.232Z,80.87
2023-02-27T19:45:15.816Z,80.22
2023-02-27T19:49:17.544Z,80.92
2023-02-27T19:53:19.233Z,81.98
2023-02-27T19:57:21.920Z,82.73
2023-02-27T20:01:28.735Z,89.77
2023-02-27T20:05:30.291Z,92.16
2023-02-27T20:09:33.254Z,92.76
2023-02-27T20:13:35.064Z,93.33
2023-02-27T20:17:41.214Z,91.88
2023-02-27T20:21:43.902Z,91.02
2023-02-27T20:25:45.363Z,90.84
2023-02-27T20:29:53.426Z,95.84
2023-02-27T20:33:55.893Z,94.21
2023-02-27T20:37:57.346Z,93.21
2023-02-27T20:41:58.866Z,95.28
2023-02-27T20:46:08.337Z,95.38
2023-02-27T20:50:11.251Z,96.01
2023-02-27T20:54:16.456Z,98.40
2023-02-27T20:58:17.961Z,98.67
2023-02-27T21:02:19.392Z,99.24
2023-02-27T21:06:21.048Z,100.00
2023-02-27T21:10:22.925Z,100.00
2023-02-27T21:14:24.410Z,100.00
2023-02-27T21:18:25.921Z,100.00
2023-02-27T21:22:27.576Z,100.00
2023-02-27T21:26:35.233Z,100.00
2023-02-27T21:30:37.478Z,100.00
2023-02-27T21:34:38.960Z,100.00
2023-02-27T21:38:40.641Z,100.00
2023-02-27T21:42:45.218Z,100.00
2023-02-27T21:46:47.376Z,100.00
2023-02-27T21:50:49.289Z,100.00
2023-02-27T21:54:50.714Z,100.00
2023-02-27T21:58:52.154Z,100.00
2023-02-27T22:02:53.672Z,100.00
2023-02-27T22:06:55.255Z,100.00
2023-02-27T22:10:58.364Z,100.00
2023-02-27T22:14:59.780Z,100.00
2023-02-27T22:19:08.664Z,100.00
2023-02-27T22:23:10.132Z,100.00
2023-02-27T22:27:11.563Z,100.00
2023-02-27T22:31:15.147Z,100.00
2023-02-27T22:35:16.754Z,100.00
2023-02-27T22:39:19.292Z,100.00
2023-02-27T22:43:20.737Z,100.00
2023-02-27T22:47:22.185Z,100.00
2023-02-27T22:51:25.309Z,100.00
2023-02-27T22:55:26.845Z,100.00
2023-02-27T22:59:28.517Z,100.00
2023-02-27T23:03:29.983Z,100.00
2023-02-27T23:07:33.286Z,100.00
2023-02-27T23:11:34.793Z,100.00
2023-02-27T23:15:38.594Z,100.00
2023-02-27T23:19:40.201Z,100.00
2023-02-27T23:23:41.872Z,100.00
2023-02-27T23:27:43.423Z,100.00
2023-02-27T23:31:45.175Z,100.00
2023-02-27T23:35:47.514Z,100.00
2023-02-27T23:39:48.983Z,100.00
2023-02-27T23:44:12.060Z,100.00
2023-02-27T23:48:13.773Z,100.00
2023-02-27T23:52:15.220Z,100.00
2023-02-27T23:56:21.090Z,100.00
